Aviation Digital Data Service (ADDS)

Output produced by METARs form (1827 UTC 26 October 2021)
found at http://aviationweather.gov/metar/data/
 
EDDP 261820Z 21010KT CAVOK 09/07 Q1023 NOSIG
TAF EDDP 261700Z 2618/2718 21008KT 9999 FEW030 
     BECMG 2707/2709 23013KT 
     BECMG 2714/2716 22008KT